Terminal Aerodrome Forecast
Issued by NWS Tulsa, OK

Home | Current Version | Previous Version | Text Only | Print | Product List | Glossary On
Versions: 1 2 3 4 5 6 7 8 9 10 11 12 13 14 15 16
769
FTUS44 KTSA 201126
TAFFSM
TAF
KFSM 201126Z 2012/2112 07005KT P6SM SCT250
     FM201800 10010KT P6SM BKN150
     FM210300 11006KT P6SM SCT040 OVC100=

USA.gov is the U.S. government's official web portal to all federal, state and local government web resources and services.